Time;durP1;ratioP1;P1;durP2;ratioP2;P2;SDS_P1;SDS_P2;PMS_P1;PMS_P2;Temp;Humidity;BMP_temperature;BMP_pressure;BME280_temperature;BME280_humidity;BME280_pressure;Samples;Min_cycle;Max_cycle;Signal;HPM_P1;HPM_P2
2023/02/08 00:00:39;;;;;;;9.70;5.78;;;;;;;-2.08;58.58;101238.25;4925864;29;20031;-95
2023/02/08 00:03:05;;;;;;;10.85;6.03;;;;;;;-2.12;59.31;101252.69;4926996;29;20040;-94
2023/02/08 00:05:30;;;;;;;13.10;6.13;;;;;;;-1.99;59.09;101278.84;4925112;29;20028;-95
2023/02/08 00:07:56;;;;;;;9.77;5.60;;;;;;;-1.94;59.08;101260.75;4925576;29;20110;-94
2023/02/08 00:10:21;;;;;;;9.35;5.88;;;;;;;-1.84;59.56;101276.59;4925938;29;20576;-96
2023/02/08 00:12:47;;;;;;;9.68;5.82;;;;;;;-1.75;58.94;101262.53;4927057;29;20019;-96
2023/02/08 00:15:13;;;;;;;10.23;5.47;;;;;;;-1.84;57.59;101255.47;4926533;29;20038;-96
2023/02/08 00:17:38;;;;;;;10.05;5.97;;;;;;;-1.83;57.67;101257.97;4925197;29;20031;-96
2023/02/08 00:20:05;;;;;;;10.95;5.88;;;;;;;-1.66;58.43;101290.75;4927183;29;20028;-96
2023/02/08 00:22:31;;;;;;;11.63;6.20;;;;;;;-1.71;57.24;101269.19;4925809;29;20015;-96
2023/02/08 00:24:56;;;;;;;12.55;6.47;;;;;;;-1.76;57.74;101273.25;4925374;29;20034;-95
2023/02/08 00:27:22;;;;;;;10.93;6.35;;;;;;;-1.76;58.19;101283.81;4926130;29;20027;-95
2023/02/08 00:29:50;;;;;;;13.88;6.50;;;;;;;-1.70;58.75;101278.81;4926225;29;20038;-96
2023/02/08 00:32:15;;;;;;;11.75;6.90;;;;;;;-1.56;57.89;101288.06;4926385;29;20015;-96
2023/02/08 00:34:41;;;;;;;10.45;6.00;;;;;;;-1.57;57.84;101290.88;4924868;29;20027;-96
2023/02/08 00:37:06;;;;;;;13.70;6.80;;;;;;;-1.72;59.21;101287.81;4926656;29;20122;-95
2023/02/08 00:39:32;;;;;;;13.70;6.78;;;;;;;-1.66;59.67;101311.88;4941889;28;20027;-96
2023/02/08 00:41:58;;;;;;;11.02;6.05;;;;;;;-1.84;58.71;101311.75;4925364;29;20023;-96
2023/02/08 00:44:23;;;;;;;10.93;6.70;;;;;;;-1.84;59.14;101324.94;4923992;29;20031;-96
2023/02/08 00:46:49;;;;;;;11.75;6.90;;;;;;;-1.90;59.49;101309.66;4941439;28;20019;-96
2023/02/08 00:49:14;;;;;;;10.73;6.32;;;;;;;-1.85;59.75;101323.28;4925728;29;20027;-96
2023/02/08 00:51:40;;;;;;;12.80;6.90;;;;;;;-1.73;59.57;101336.34;4925081;28;20027;-96
2023/02/08 00:54:06;;;;;;;12.73;6.28;;;;;;;-1.70;60.14;101314.91;4928201;29;20081;-96
2023/02/08 00:56:31;;;;;;;11.38;7.20;;;;;;;-1.77;59.05;101304.09;4943745;29;20027;-95
2023/02/08 00:58:57;;;;;;;11.30;6.78;;;;;;;-1.67;58.81;101320.75;4928467;29;20023;-96
2023/02/08 01:01:23;;;;;;;13.18;6.72;;;;;;;-1.65;59.02;101325.91;4928758;29;20509;-96
2023/02/08 01:03:49;;;;;;;12.35;7.30;;;;;;;-1.68;59.32;101340.25;4928431;29;20028;-96
2023/02/08 01:06:16;;;;;;;12.68;7.32;;;;;;;-1.64;58.81;101330.22;4928974;29;20409;-96
2023/02/08 01:08:42;;;;;;;12.75;7.47;;;;;;;-1.62;59.03;101330.91;4928529;29;20478;-95
2023/02/08 01:11:14;;;;;;;12.43;7.25;;;;;;;-1.71;59.51;101324.66;4929154;29;20027;-95
2023/02/08 01:13:40;;;;;;;14.60;7.20;;;;;;;-1.72;59.47;101324.78;4929470;29;20538;-95
2023/02/08 01:16:19;;;;;;;12.00;7.53;;;;;;;-1.58;58.96;101324.38;4929412;29;20042;-96
2023/02/08 01:18:46;;;;;;;15.95;7.75;;;;;;;-1.48;59.25;101329.66;4929169;29;20086;-96
2023/02/08 01:21:13;;;;;;;13.05;6.13;;;;;;;-1.78;59.37;101306.91;4929840;29;20007;-95
2023/02/08 01:23:38;;;;;;;13.63;7.00;;;;;;;-1.69;59.30;101306.03;4928543;29;20406;-95
2023/02/08 01:26:04;;;;;;;12.75;7.38;;;;;;;-1.66;60.04;101318.94;4928730;29;20023;-96
2023/02/08 01:28:30;;;;;;;18.25;7.72;;;;;;;-1.76;60.52;101303.13;4929123;29;20019;-95
2023/02/08 01:30:55;;;;;;;12.68;7.00;;;;;;;-1.72;58.82;101301.03;4928724;29;20023;-95
2023/02/08 01:33:21;;;;;;;14.23;7.97;;;;;;;-1.75;59.47;101311.88;4928621;29;20015;-96
2023/02/08 01:35:51;;;;;;;13.77;8.00;;;;;;;-2.06;59.49;101299.66;4926973;29;20023;-95
2023/02/08 01:38:17;;;;;;;13.80;8.05;;;;;;;-1.83;60.17;101317.84;4928053;29;20031;-95
2023/02/08 01:40:43;;;;;;;13.32;7.35;;;;;;;-1.83;59.20;101310.78;4928504;29;20023;-95
2023/02/08 01:43:29;;;;;;;14.00;8.32;;;;;;;-1.80;59.49;101312.31;4929321;29;20093;-95
2023/02/08 01:45:54;;;;;;;12.88;7.75;;;;;;;-1.72;59.69;101315.09;4929237;29;20058;-96
2023/02/08 01:48:29;;;;;;;14.80;8.02;;;;;;;-1.97;59.88;101283.94;4928192;29;20027;-96
2023/02/08 01:51:03;;;;;;;12.38;7.35;;;;;;;-1.87;59.74;101306.75;4928071;29;20023;-96
2023/02/08 01:53:31;;;;;;;13.50;7.45;;;;;;;-1.95;60.50;101298.69;4960460;29;20386;-95
2023/02/08 01:55:58;;;;;;;15.90;8.70;;;;;;;-2.06;60.08;101306.72;4944570;29;20564;-96
2023/02/08 01:58:24;;;;;;;19.02;9.15;;;;;;;-2.26;61.02;101308.53;4944567;29;20027;-95
2023/02/08 02:00:53;;;;;;;20.15;9.80;;;;;;;-2.18;60.81;101327.13;4926813;29;20490;-95
2023/02/08 02:03:21;;;;;;;19.70;8.55;;;;;;;-2.18;60.84;101328.94;4943297;28;20035;-95
2023/02/08 02:05:51;;;;;;;16.38;8.40;;;;;;;-2.00;60.33;101348.41;4927472;29;20023;-96
2023/02/08 02:08:17;;;;;;;16.35;8.75;;;;;;;-2.09;60.97;101322.88;4944313;29;20198;-96
2023/02/08 02:11:06;;;;;;;14.18;8.23;;;;;;;-2.05;59.94;101338.28;4928565;29;20110;-96
2023/02/08 02:13:33;;;;;;;15.18;8.57;;;;;;;-1.97;61.08;101352.56;4942297;29;20043;-96
2023/02/08 02:16:01;;;;;;;13.15;7.18;;;;;;;-1.91;61.95;101346.75;4927251;29;20048;-96
2023/02/08 02:18:30;;;;;;;12.60;8.20;;;;;;;-1.95;62.01;101346.22;4912758;29;20039;-96
2023/02/08 02:21:10;;;;;;;13.52;7.35;;;;;;;-1.81;61.39;101368.72;4911616;29;20084;-96
2023/02/08 02:24:02;;;;;;;14.15;7.50;;;;;;;-1.97;63.19;101371.06;4942929;29;20596;-96
2023/02/08 02:26:34;;;;;;;;;;;;;;;-1.84;61.45;101367.19;4928171;29;20003;-96
2023/02/08 02:29:30;;;;;;;12.80;6.68;;;;;;;-1.82;61.10;101377.63;4959990;29;19933;-95
2023/02/08 02:32:30;;;;;;;12.85;7.72;;;;;;;-1.89;62.21;101368.56;4957970;29;20027;-96
2023/02/08 02:35:08;;;;;;;12.85;7.43;;;;;;;-1.92;62.36;101371.50;4912328;29;20147;-96
2023/02/08 02:37:48;;;;;;;13.80;7.97;;;;;;;-2.07;62.24;101347.31;4957934;29;20023;-95
2023/02/08 02:40:50;;;;;;;16.00;8.95;;;;;;;-1.86;61.50;101384.97;4927307;29;20039;-95
2023/02/08 02:43:50;;;;;;;;;;;;;;;;;;;;;
2023/02/08 02:46:39;;;;;;;11.60;7.63;;;;;;;-2.06;61.93;101354.25;4954242;29;20099;-96
2023/02/08 02:49:25;;;;;;;16.40;8.13;;;;;;;-1.95;62.55;101395.50;4951271;29;20475;-96
2023/02/08 02:52:01;;;;;;;15.15;8.38;;;;;;;-1.87;62.94;101393.03;4969635;28;20028;-96
2023/02/08 02:54:44;;;;;;;16.85;8.93;;;;;;;-2.19;63.44;101375.63;4950563;29;20405;-96
2023/02/08 02:57:16;;;;;;;16.95;8.52;;;;;;;-2.19;63.70;101380.06;4949315;29;20027;-96
2023/02/08 02:59:44;;;;;;;12.30;7.82;;;;;;;-2.16;62.12;101366.59;4942202;29;20107;-96
2023/02/08 03:02:10;;;;;;;13.02;8.07;;;;;;;-2.08;62.63;101374.66;4930818;29;20130;-96
2023/02/08 03:04:39;;;;;;;17.02;9.50;;;;;;;-1.92;63.31;101403.16;4950551;28;20032;-96
2023/02/08 03:07:08;;;;;;;16.92;8.48;;;;;;;-2.03;62.73;101399.69;4966676;28;20026;-95
2023/02/08 03:09:54;;;;;;;14.45;9.05;;;;;;;-2.01;62.12;101367.88;4965109;28;20031;-96
2023/02/08 03:12:32;;;;;;;13.63;8.15;;;;;;;-2.06;61.66;101376.19;4950433;29;20038;-96
2023/02/08 03:15:25;;;;;;;15.73;8.50;;;;;;;-1.89;61.75;101390.53;4934144;29;20027;-96
2023/02/08 03:18:16;;;;;;;16.27;8.75;;;;;;;-1.78;61.60;101415.16;4965185;28;20486;-96
2023/02/08 03:21:02;;;;;;;14.95;7.15;;;;;;;-1.83;61.02;101419.03;4966094;28;20027;-96
2023/02/08 03:24:12;;;;;;;13.85;8.50;;;;;;;-2.14;61.38;101377.84;4950333;29;20502;-96
2023/02/08 03:27:15;;;;;;;11.13;6.93;;;;;;;-1.99;62.71;101404.66;4949454;29;20032;-96
2023/02/08 03:29:47;;;;;;;14.00;7.38;;;;;;;-2.22;63.05;101393.50;4929870;29;20015;-96
2023/02/08 03:32:17;;;;;;;12.80;7.35;;;;;;;-2.12;63.54;101416.31;4930747;29;20104;-96
2023/02/08 03:35:31;;;;;;;15.93;8.05;;;;;;;-2.05;63.22;101396.34;4928811;29;20102;-96
2023/02/08 03:38:13;;;;;;;13.05;7.50;;;;;;;-2.13;63.96;101398.00;4906224;29;20032;-96
2023/02/08 03:40:39;;;;;;;;;;;;;;;-1.81;64.32;101423.34;4893419;29;20039;-96
2023/02/08 03:43:39;;;;;;;14.07;7.35;;;;;;;-1.91;62.92;101410.97;4921910;29;19910;-96
2023/02/08 03:46:28;;;;;;;15.77;7.82;;;;;;;-2.04;64.09;101413.84;4901417;29;20558;-95
2023/02/08 03:49:16;;;;;;;16.55;8.50;;;;;;;-2.09;61.99;101405.50;4922396;29;20486;-95
2023/02/08 03:51:43;;;;;;;12.98;7.75;;;;;;;-1.96;61.76;101413.16;4907973;29;20040;-96
2023/02/08 03:54:19;;;;;;;15.15;6.93;;;;;;;-1.86;62.35;101429.03;4905300;29;20043;-96
2023/02/08 03:56:58;;;;;;;12.85;8.02;;;;;;;-2.17;62.40;101401.88;4891521;29;20036;-96
2023/02/08 03:59:27;;;;;;;11.73;6.95;;;;;;;-2.13;61.84;101427.84;4939485;29;20028;-96
2023/02/08 04:02:00;;;;;;;13.40;7.22;;;;;;;-2.26;62.56;101422.00;4922268;29;20060;-96
2023/02/08 04:04:41;;;;;;;12.35;7.45;;;;;;;-2.06;62.55;101438.69;4939818;29;20031;-95
2023/02/08 04:07:07;;;;;;;18.52;8.95;;;;;;;-2.21;62.32;101426.88;4923146;29;20022;-94
2023/02/08 04:09:32;;;;;;;17.48;8.30;;;;;;;-2.41;63.43;101439.97;4937298;29;20039;-95
2023/02/08 04:11:59;;;;;;;15.50;8.85;;;;;;;-2.28;62.90;101447.69;4922441;29;20495;-95
2023/02/08 04:14:26;;;;;;;16.20;8.95;;;;;;;-2.24;63.50;101438.53;4906366;29;20028;-96
2023/02/08 04:16:53;;;;;;;18.33;9.75;;;;;;;-2.25;63.31;101434.19;4937981;29;20039;-96
2023/02/08 04:19:19;;;;;;;17.38;8.32;;;;;;;-2.26;64.19;101451.00;4921533;29;20558;-95
2023/02/08 04:21:45;;;;;;;14.90;7.97;;;;;;;-2.20;63.39;101468.97;4938476;29;20470;-96
2023/02/08 04:24:11;;;;;;;17.02;9.10;;;;;;;-2.47;63.70;101454.53;4922899;29;20027;-96
2023/02/08 04:26:37;;;;;;;16.75;8.18;;;;;;;-2.31;64.31;101456.66;4938247;28;20028;-95
2023/02/08 04:29:03;;;;;;;15.40;7.35;;;;;;;-2.42;64.43;101464.69;4928387;29;20028;-96
2023/02/08 04:31:29;;;;;;;17.25;9.05;;;;;;;-2.37;64.60;101472.19;4928018;29;20019;-96
2023/02/08 04:33:57;;;;;;;19.58;8.43;;;;;;;-2.39;64.35;101460.94;4948444;29;20137;-96
2023/02/08 04:36:23;;;;;;;15.13;9.45;;;;;;;-2.19;64.09;101497.00;4917662;29;20036;-96
2023/02/08 04:38:52;;;;;;;16.48;9.05;;;;;;;-2.41;64.54;101468.16;4950501;29;20040;-96
2023/02/08 04:41:24;;;;;;;19.95;8.25;;;;;;;-2.68;65.51;101480.94;4946865;29;20024;-96
2023/02/08 04:43:50;;;;;;;;;;;;;;;-2.39;65.72;101511.06;4937892;29;20067;-96
2023/02/08 04:46:16;;;;;;;14.75;8.52;;;;;;;-2.51;67.03;101492.69;4952034;29;19923;-96
2023/02/08 04:48:44;;;;;;;20.70;8.63;;;;;;;-2.48;66.29;101508.25;4946597;29;20490;-96
2023/02/08 04:51:17;;;;;;;16.20;8.63;;;;;;;-2.53;65.91;101497.25;4942170;29;20028;-96
2023/02/08 04:53:42;;;;;;;16.15;8.85;;;;;;;-2.33;65.09;101498.19;4916681;29;20065;-96
2023/02/08 04:56:08;;;;;;;17.40;9.23;;;;;;;-2.29;65.98;101531.25;4944635;29;20031;-96
2023/02/08 04:58:36;;;;;;;16.15;9.02;;;;;;;-2.38;65.12;101507.47;4928757;29;20114;-96
2023/02/08 05:01:09;;;;;;;16.85;9.32;;;;;;;-2.34;64.66;101514.16;4957345;28;20062;-96
2023/02/08 05:03:38;;;;;;;11.73;7.20;;;;;;;-2.31;65.32;101532.34;4941908;29;20376;-96
2023/02/08 05:06:03;;;;;;;14.60;8.32;;;;;;;-2.41;65.49;101519.09;4925698;29;20398;-96
2023/02/08 05:08:32;;;;;;;19.23;9.32;;;;;;;-2.31;65.42;101530.53;4925473;29;20094;-96
2023/02/08 05:10:58;;;;;;;19.23;8.52;;;;;;;-2.30;65.57;101529.59;4925297;29;20057;-96
2023/02/08 05:13:25;;;;;;;18.88;10.35;;;;;;;-2.34;65.94;101515.00;4942810;29;20128;-96
2023/02/08 05:16:01;;;;;;;18.20;9.85;;;;;;;-2.44;65.68;101517.56;4928840;29;20058;-96
2023/02/08 05:18:27;;;;;;;17.08;10.05;;;;;;;-2.45;66.02;101515.03;4927718;29;20042;-95
2023/02/08 05:20:57;;;;;;;15.38;9.25;;;;;;;-2.20;66.15;101553.41;4925439;29;20027;-96
2023/02/08 05:23:24;;;;;;;15.38;8.13;;;;;;;-2.21;65.60;101548.25;4926797;29;20139;-96
2023/02/08 05:25:50;;;;;;;16.40;9.75;;;;;;;-2.29;65.27;101541.81;4895370;29;20059;-96
2023/02/08 05:28:18;;;;;;;17.73;10.15;;;;;;;-2.32;66.94;101551.81;4910538;29;20038;-96
2023/02/08 05:30:46;;;;;;;18.00;10.25;;;;;;;-2.18;66.27;101564.63;4914416;29;20164;-96
2023/02/08 05:33:15;;;;;;;16.00;8.75;;;;;;;-1.99;66.36;101573.59;4943918;29;20483;-96
2023/02/08 05:35:44;;;;;;;21.48;10.43;;;;;;;-2.05;65.86;101569.72;4933433;29;20027;-96
2023/02/08 05:38:16;;;;;;;16.50;10.32;;;;;;;-2.15;65.76;101561.75;4946694;29;20042;-96
2023/02/08 05:40:42;;;;;;;;;;;;;;;-2.04;65.59;101595.13;4944168;29;20039;-96
2023/02/08 05:43:11;;;;;;;19.98;12.07;;;;;;;-2.11;66.18;101601.91;4944838;29;19982;-95
2023/02/08 05:45:41;;;;;;;20.90;11.25;;;;;;;-2.22;66.39;101576.44;4947526;29;20031;-96
2023/02/08 05:48:07;;;;;;;20.98;10.13;;;;;;;-2.27;66.50;101592.63;4919582;29;20032;-96
2023/02/08 05:50:33;;;;;;;16.15;9.20;;;;;;;-2.45;67.02;101587.13;4937270;29;20047;-96
2023/02/08 05:52:58;;;;;;;20.35;9.05;;;;;;;-2.33;67.92;101608.16;4922807;29;20411;-95
2023/02/08 05:55:27;;;;;;;18.08;9.63;;;;;;;-2.29;67.27;101591.94;4930072;29;20039;-96
2023/02/08 05:57:54;;;;;;;16.17;9.38;;;;;;;-2.27;66.98;101607.63;4931725;29;20027;-96
2023/02/08 06:00:20;;;;;;;17.67;10.88;;;;;;;-2.31;66.17;101596.50;4945749;29;20035;-95
2023/02/08 06:02:46;;;;;;;16.02;8.80;;;;;;;-2.22;67.55;101607.25;4945075;29;20114;-96
2023/02/08 06:05:12;;;;;;;16.00;9.68;;;;;;;-2.02;66.59;101640.72;4933077;29;20178;-96
2023/02/08 06:07:39;;;;;;;18.42;10.13;;;;;;;-1.88;66.42;101619.25;4932052;29;20076;-95
2023/02/08 06:10:05;;;;;;;17.73;10.35;;;;;;;-1.80;66.71;101629.16;4931419;29;20027;-96
2023/02/08 06:22:27;;;;;;;18.38;10.27;;;;;;;-1.62;64.48;101639.94;5146925;23;20086;-96
2023/02/08 06:25:02;;;;;;;19.40;9.95;;;;;;;-1.73;64.70;101645.31;4932813;28;20047;-96
2023/02/08 06:27:45;;;;;;;16.58;9.60;;;;;;;-1.84;65.90;101647.06;4931495;28;20031;-96
2023/02/08 06:30:33;;;;;;;17.30;9.80;;;;;;;-1.80;65.36;101630.97;4939473;28;20062;-96
2023/02/08 06:33:10;;;;;;;16.65;9.77;;;;;;;-1.74;66.38;101631.28;4958272;28;20042;-95
2023/02/08 06:36:01;;;;;;;14.45;8.63;;;;;;;-1.57;63.98;101637.75;4945560;28;20019;-96
2023/02/08 06:45:27;;;;;;;12.82;6.80;;;;;;;-1.27;59.79;101654.53;4914177;29;20108;-95
2023/02/08 06:48:05;;;;;;;11.52;7.03;;;;;;;-1.33;59.34;101647.13;4858279;29;20190;-95
2023/02/08 07:04:53;;;;;;;10.23;5.82;;;;;;;-1.37;58.19;101664.22;5195571;23;20055;-96
2023/02/08 07:10:28;;;;;;;11.68;6.90;;;;;;;-1.08;56.05;101661.66;4957867;23;20060;-96
2023/02/08 07:13:26;;;;;;;;;;;;;;;;;;;;;
2023/02/08 07:15:53;;;;;;;11.32;6.28;;;;;;;-0.88;54.81;101668.66;4957615;28;20067;-96
2023/02/08 07:18:19;;;;;;;13.95;7.00;;;;;;;-0.88;54.72;101678.41;4948590;28;20164;-96
2023/02/08 07:20:53;;;;;;;10.32;6.25;;;;;;;-0.87;54.08;101670.34;4933125;29;20020;-96
2023/02/08 07:23:23;;;;;;;9.77;5.82;;;;;;;-0.77;52.85;101659.75;5069490;23;20070;-96
2023/02/08 07:26:24;;;;;;;13.13;6.20;;;;;;;-0.73;51.53;101669.09;4959026;28;20042;-96
2023/02/08 07:29:00;;;;;;;7.78;4.43;;;;;;;-0.37;49.79;101697.66;4970199;28;20058;-96
2023/02/08 07:31:26;;;;;;;8.27;4.38;;;;;;;-0.63;49.64;101672.59;4972512;28;20089;-96
2023/02/08 07:33:53;;;;;;;7.60;4.75;;;;;;;-0.34;50.78;101710.63;4956666;28;20030;-96
2023/02/08 07:36:21;;;;;;;9.85;4.57;;;;;;;-0.56;49.28;101672.03;4980421;28;20040;-96
2023/02/08 07:38:51;;;;;;;8.90;4.85;;;;;;;-0.54;49.80;101673.59;4964987;28;20030;-96
2023/02/08 07:55:17;;;;;;;8.68;4.57;;;;;;;-0.56;48.98;101707.28;4987288;28;20034;-96
2023/02/08 08:02:56;;;;;;;9.23;4.28;;;;;;;-0.85;50.42;101701.94;5075187;23;20027;-96
2023/02/08 08:05:27;;;;;;;8.35;4.93;;;;;;;-0.92;50.32;101706.09;4917107;29;20106;-96
2023/02/08 08:13:11;;;;;;;10.32;4.75;;;;;;;-0.98;48.88;101707.47;5002239;28;20046;-95
2023/02/08 08:15:42;;;;;;;8.48;4.57;;;;;;;-0.71;50.57;101728.00;4960157;28;20098;-96
2023/02/08 08:18:17;;;;;;;7.07;4.57;;;;;;;-0.90;50.02;101723.50;4934659;29;20036;-96
2023/02/08 08:23:57;;;;;;;6.57;4.05;;;;;;;-0.98;50.67;101701.34;5032137;23;20074;-94
2023/02/08 08:26:22;;;;;;;7.45;4.53;;;;;;;-0.86;50.95;101718.78;4920111;29;20054;-94
2023/02/08 08:28:55;;;;;;;8.38;4.32;;;;;;;-0.79;50.23;101698.75;4939477;28;20042;-96
2023/02/08 08:31:25;;;;;;;9.75;5.32;;;;;;;-0.42;49.66;101735.97;4938245;28;20037;-96
2023/02/08 08:34:04;;;;;;;8.88;4.13;;;;;;;-0.39;49.74;101713.69;4938477;28;20062;-96
2023/02/08 08:36:36;;;;;;;10.43;5.35;;;;;;;-0.38;51.12;101754.22;4910948;28;20043;-96
2023/02/08 08:39:06;;;;;;;8.82;4.80;;;;;;;-0.17;47.78;101719.69;4936840;28;20046;-96
2023/02/08 08:41:40;;;;;;;12.23;5.03;;;;;;;-0.08;49.21;101756.75;4934278;28;20066;-96
2023/02/08 08:47:03;;;;;;;8.80;5.03;;;;;;;0.28;48.51;101751.69;5004552;23;20050;-96
2023/02/08 08:49:30;;;;;;;7.85;4.65;;;;;;;0.10;49.98;101725.09;4951450;28;20030;-96
2023/02/08 08:51:59;;;;;;;10.20;4.63;;;;;;;0.08;48.55;101724.38;4988201;28;20038;-96
2023/02/08 08:57:06;;;;;;;7.75;4.22;;;;;;;0.14;47.05;101746.84;5082065;23;20514;-96
2023/02/08 09:03:10;;;;;;;9.18;4.28;;;;;;;0.51;47.15;101757.50;5202280;23;20572;-96
2023/02/08 09:12:06;;;;;;;;;;;;;;;;;;;;;
2023/02/08 09:18:08;;;;;;;11.95;4.85;;;;;;;0.44;48.44;101752.94;4977917;28;19930;-96
2023/02/08 09:20:47;;;;;;;9.70;4.45;;;;;;;0.36;48.24;101785.44;4946978;29;20023;-96
2023/02/08 09:31:15;;;;;;;8.18;4.55;;;;;;;-0.02;49.86;101764.16;4977622;28;20041;-96
2023/02/08 09:34:09;;;;;;;12.02;5.97;;;;;;;0.03;51.20;101768.19;4974614;28;20038;-96
2023/02/08 09:36:39;;;;;;;9.32;5.70;;;;;;;0.27;50.03;101780.97;4938966;28;20039;-95
2023/02/08 09:39:25;;;;;;;11.27;5.57;;;;;;;0.02;50.62;101759.38;4968910;28;20029;-94
2023/02/08 09:42:19;;;;;;;9.85;5.60;;;;;;;0.43;49.90;101783.06;4946191;28;20081;-94
2023/02/08 09:45:13;;;;;;;10.95;5.75;;;;;;;0.30;50.32;101763.00;4967479;28;20050;-93
2023/02/08 09:47:46;;;;;;;11.00;6.03;;;;;;;-0.01;51.13;101749.09;4932690;28;20031;-94
2023/02/08 09:50:17;;;;;;;11.82;6.50;;;;;;;0.14;51.98;101765.38;4957722;28;20124;-94
2023/02/08 09:53:07;;;;;;;14.85;7.38;;;;;;;0.39;50.60;101764.81;4951832;28;20089;-93
2023/02/08 09:55:43;;;;;;;11.05;6.22;;;;;;;0.34;51.79;101782.09;4950961;28;20034;-96
2023/02/08 09:58:37;;;;;;;8.98;5.78;;;;;;;0.19;52.64;101741.97;4942434;28;20026;-96
2023/02/08 10:01:06;;;;;;;9.40;4.75;;;;;;;0.22;51.61;101749.63;4978095;28;20031;-95
2023/02/08 10:04:03;;;;;;;;;;;;;;;;;;;;;
2023/02/08 10:06:29;;;;;;;11.98;6.45;;;;;;;0.30;54.03;101755.03;4930322;29;20107;-96
2023/02/08 10:09:13;;;;;;;;;;;;;;;;;;;;;
2023/02/08 10:12:40;;;;;;;115.72;48.45;;;;;;;0.34;54.12;101768.84;4933915;29;20095;-95
2023/02/08 10:15:50;;;;;;;11.55;6.00;;;;;;;0.29;52.28;101771.06;4916946;29;20052;-95
2023/02/08 10:18:39;;;;;;;9.95;5.72;;;;;;;0.28;54.54;101780.03;4905238;29;20059;-94
2023/02/08 10:21:20;;;;;;;11.57;5.60;;;;;;;0.11;53.68;101747.13;4898518;29;20341;-95
2023/02/08 10:24:21;;;;;;;9.40;5.22;;;;;;;0.25;53.05;101774.97;4881578;29;20036;-95
2023/02/08 10:27:05;;;;;;;12.27;6.85;;;;;;;0.15;53.45;101764.41;4913673;28;20038;-94
2023/02/08 10:29:44;;;;;;;17.73;8.38;;;;;;;0.26;53.81;101777.50;4978684;28;20094;-96
2023/02/08 10:32:49;;;;;;;9.88;4.45;;;;;;;-0.13;54.75;101780.16;4965972;28;20178;-96
2023/02/08 10:35:44;;;;;;;8.10;4.70;;;;;;;-0.16;55.13;101776.97;4927882;29;20032;-96
2023/02/08 10:38:32;;;;;;;6.75;4.65;;;;;;;-0.37;54.69;101750.59;4945657;29;20040;-94
2023/02/08 10:41:01;;;;;;;7.97;4.82;;;;;;;-0.47;56.47;101747.97;4926287;29;20032;-93
2023/02/08 10:43:35;;;;;;;10.77;5.70;;;;;;;-0.21;56.34;101780.00;4929235;29;20091;-94
2023/02/08 10:46:14;;;;;;;8.80;5.47;;;;;;;-0.52;56.75;101761.59;4945598;29;20055;-93
2023/02/08 10:49:33;;;;;;;10.82;6.15;;;;;;;-0.37;57.67;101771.78;4931749;29;20051;-94
2023/02/08 10:52:00;;;;;;;9.45;5.43;;;;;;;-0.42;58.55;101770.38;4934332;29;20039;-94
2023/02/08 10:54:34;;;;;;;10.23;6.28;;;;;;;-0.54;59.75;101763.56;4916181;29;20069;-95
2023/02/08 10:57:25;;;;;;;11.45;6.18;;;;;;;-0.58;60.10;101742.78;4918854;29;20035;-96
2023/02/08 11:00:06;;;;;;;9.77;5.63;;;;;;;-0.35;61.14;101752.16;4934388;29;20059;-94
2023/02/08 11:09:05;;;;;;;7.35;4.70;;;;;;;0.18;57.79;101758.81;4944190;29;20119;-96
2023/02/08 11:11:55;;;;;;;11.43;5.80;;;;;;;0.33;58.70;101751.25;4935521;29;20061;-96
2023/02/08 11:14:52;;;;;;;13.05;6.13;;;;;;;0.25;56.07;101780.28;4941935;29;20035;-92
2023/02/08 11:18:13;;;;;;;10.75;5.13;;;;;;;0.18;56.25;101780.84;4906091;29;20116;-96
2023/02/08 11:20:55;;;;;;;9.05;4.88;;;;;;;-0.06;57.18;101749.50;4922902;29;20040;-94
2023/02/08 11:23:39;;;;;;;8.00;3.97;;;;;;;0.16;57.49;101744.88;4913589;29;20038;-96
2023/02/08 11:26:23;;;;;;;9.65;5.60;;;;;;;0.31;57.32;101774.41;4939201;29;20035;-90
2023/02/08 11:29:42;;;;;;;7.70;5.10;;;;;;;0.15;57.84;101775.00;4948044;29;20054;-93
2023/02/08 11:32:20;;;;;;;7.65;4.25;;;;;;;0.35;56.13;101760.78;4908242;29;20055;-95
2023/02/08 11:34:46;;;;;;;7.72;5.03;;;;;;;0.20;58.33;101778.91;4915624;29;20495;-95
2023/02/08 11:37:22;;;;;;;7.63;4.18;;;;;;;0.29;57.50;101760.47;4918518;29;20108;-92
2023/02/08 11:39:58;;;;;;;9.80;4.50;;;;;;;0.08;58.85;101764.13;4939414;29;20035;-94
2023/02/08 11:42:28;;;;;;;11.02;4.75;;;;;;;-0.02;59.96;101758.03;4913979;29;20078;-92
2023/02/08 11:44:54;;;;;;;9.23;6.03;;;;;;;0.11;59.65;101765.69;4942553;29;20027;-94
2023/02/08 11:47:26;;;;;;;77.40;37.20;;;;;;;0.08;60.54;101750.06;4913295;29;20555;-95
2023/02/08 11:49:55;;;;;;;;;;;;;;;0.14;59.39;101783.94;4912526;29;20031;-93
2023/02/08 11:52:50;;;;;;;11.40;6.43;;;;;;;-0.23;61.75;101769.59;4930026;29;20417;-94
2023/02/08 11:55:18;;;;;;;12.38;7.43;;;;;;;-0.01;62.76;101781.69;4932875;29;20046;-96
2023/02/08 12:01:28;;;;;;;12.73;6.80;;;;;;;-0.22;61.08;101762.47;4941259;29;20104;-94
2023/02/08 12:04:02;;;;;;;11.55;6.30;;;;;;;-0.38;61.53;101756.88;4921896;29;20031;-94
2023/02/08 12:06:43;;;;;;;13.30;6.57;;;;;;;-0.09;63.11;101778.91;4926124;29;20034;-92
2023/02/08 12:09:22;;;;;;;10.85;5.97;;;;;;;-0.21;61.21;101780.00;4953979;29;20035;-92
2023/02/08 12:12:11;;;;;;;9.75;5.15;;;;;;;-0.29;60.72;101756.91;4919851;29;20082;-95
2023/02/08 12:14:55;;;;;;;7.90;5.15;;;;;;;0.02;60.49;101769.97;4916181;29;20063;-93
2023/02/08 12:17:35;;;;;;;7.78;4.90;;;;;;;0.09;60.16;101787.00;4900432;29;20032;-92
2023/02/08 12:20:42;;;;;;;9.30;5.25;;;;;;;0.03;61.22;101787.56;4930881;29;20060;-95
2023/02/08 12:23:17;;;;;;;10.10;4.75;;;;;;;0.09;61.02;101773.75;4927825;29;20036;-96
2023/02/08 12:26:10;;;;;;;8.23;5.43;;;;;;;0.25;60.91;101785.59;4907024;29;20131;-95
2023/02/08 12:29:09;;;;;;;;;;;;;;;;;;;;;
2023/02/08 12:32:04;;;;;;;11.00;5.13;;;;;;;0.44;59.34;101785.56;4908216;29;20072;-95
2023/02/08 12:34:36;;;;;;;7.45;5.03;;;;;;;0.17;60.10;101775.72;4918771;29;20062;-95
2023/02/08 12:40:51;;;;;;;20.40;12.82;;;;;;;0.16;62.42;101779.31;4898469;29;20047;-96
2023/02/08 12:44:03;;;;;;;10.98;6.43;;;;;;;0.33;60.26;101799.81;4885626;29;20066;-95
2023/02/08 12:46:46;;;;;;;10.48;5.65;;;;;;;-0.15;62.48;101808.59;4895391;29;20052;-96
2023/02/08 12:52:24;;;;;;;14.15;7.18;;;;;;;0.10;62.38;101812.50;4972250;28;20051;-96
2023/02/08 13:04:58;;;;;;;11.18;5.90;;;;;;;0.00;64.14;101809.03;4821496;29;20058;-96
2023/02/08 13:07:31;;;;;;;13.00;5.93;;;;;;;0.23;63.61;101811.38;4829425;29;20391;-93
2023/02/08 13:10:14;;;;;;;21.88;11.85;;;;;;;0.13;63.81;101811.41;4860756;29;20432;-94
2023/02/08 13:12:52;;;;;;;89.32;39.58;;;;;;;-0.06;62.37;101788.41;4878613;29;20045;-96
2023/02/08 13:16:02;;;;;;;12.02;5.78;;;;;;;-0.07;62.61;101805.25;4851914;29;20047;-95
2023/02/08 13:18:40;;;;;;;9.35;5.95;;;;;;;0.10;63.03;101823.09;4846706;29;20102;-93
2023/02/08 13:21:23;;;;;;;9.55;5.25;;;;;;;0.05;61.38;101824.50;4868246;29;20088;-91
2023/02/08 13:24:43;;;;;;;11.18;5.80;;;;;;;0.18;60.50;101825.06;4859942;29;20074;-96
2023/02/08 13:27:18;;;;;;;5.45;4.40;;;;;;;0.14;60.48;101836.91;4913661;29;20040;-96
2023/02/08 13:29:49;;;;;;;9.45;5.20;;;;;;;-0.22;61.26;101803.00;4911394;29;20079;-94
2023/02/08 13:32:29;;;;;;;9.35;5.80;;;;;;;-0.11;63.58;101803.84;4930233;29;20032;-96
2023/02/08 13:37:31;;;;;;;11.60;5.43;;;;;;;-0.02;63.14;101827.72;4986859;23;20043;-93
2023/02/08 13:39:58;;;;;;;10.23;6.07;;;;;;;-0.03;62.77;101814.59;4925497;28;20119;-94
2023/02/08 13:42:46;;;;;;;9.60;5.90;;;;;;;0.01;62.30;101810.69;4945757;28;20146;-94
2023/02/08 13:45:52;;;;;;;10.63;5.80;;;;;;;0.14;61.25;101827.13;4930733;29;20034;-93
2023/02/08 13:48:20;;;;;;;10.63;6.03;;;;;;;-0.06;63.81;101818.38;4954012;28;20038;-94
2023/02/08 13:50:55;;;;;;;9.50;5.28;;;;;;;-0.10;62.11;101816.13;4927257;29;20142;-92
2023/02/08 13:56:04;;;;;;;5.68;3.85;;;;;;;-0.14;59.71;101818.22;4975410;28;20043;-96
2023/02/08 14:05:38;;;;;;;7.00;4.55;;;;;;;0.03;60.67;101853.78;5009034;23;20051;-95
2023/02/08 14:33:41;;;;;;;17.35;9.93;;;;;;;-0.24;63.06;101838.53;5133574;27;20393;-94
2023/02/08 14:36:30;;;;;;;16.27;11.60;;;;;;;-0.41;63.98;101842.69;5095914;28;20061;-94
2023/02/08 14:39:25;;;;;;;14.68;8.23;;;;;;;-0.13;64.97;101864.06;5111189;28;20416;-96
2023/02/08 14:42:04;;;;;;;10.48;6.57;;;;;;;-0.54;62.85;101826.19;5120548;28;20031;-95